Time;durP1;ratioP1;P1;durP2;ratioP2;P2;SDS_P1;SDS_P2;PMS_P1;PMS_P2;Temp;Humidity;BMP_temperature;BMP_pressure;BME280_temperature;BME280_humidity;BME280_pressure;Samples;Min_cycle;Max_cycle;Signal;HPM_P1;HPM_P2
2023/07/18 00:00:17;;;;;;;3.70;1.30;;;;;;;14.86;79.24;149818.84;4949751;28;20358;-65
2023/07/18 00:02:44;;;;;;;3.20;1.30;;;;;;;14.84;79.41;149813.84;4945717;28;20476;-65
2023/07/18 00:05:12;;;;;;;4.73;1.40;;;;;;;14.78;80.12;149797.63;4948823;28;20242;-65
2023/07/18 00:07:40;;;;;;;2.13;1.20;;;;;;;14.74;79.37;149788.91;4947786;28;20250;-65
2023/07/18 00:10:09;;;;;;;2.93;0.97;;;;;;;14.78;78.69;149798.91;4949264;28;20216;-65
2023/07/18 00:12:36;;;;;;;2.60;1.27;;;;;;;14.84;77.86;149812.63;4947715;28;20242;-65
2023/07/18 00:15:04;;;;;;;5.03;1.10;;;;;;;14.81;78.61;149806.41;4949764;28;20249;-65
2023/07/18 00:17:31;;;;;;;5.57;1.30;;;;;;;14.80;78.97;149803.91;4946485;28;20222;-65
2023/07/18 00:19:58;;;;;;;4.30;1.13;;;;;;;14.79;79.68;149801.41;4933550;28;20240;-65
2023/07/18 00:22:25;;;;;;;3.27;1.50;;;;;;;14.71;79.07;149781.44;4931866;28;20338;-65
2023/07/18 00:24:51;;;;;;;5.83;1.20;;;;;;;14.73;78.00;149787.66;4948680;28;20231;-65
2023/07/18 00:27:19;;;;;;;2.40;1.00;;;;;;;14.68;79.28;149773.88;4948197;28;20237;-65
2023/07/18 00:29:46;;;;;;;5.77;1.60;;;;;;;14.73;78.32;149786.41;4921068;28;20244;-65
2023/07/18 00:32:13;;;;;;;4.87;1.23;;;;;;;14.76;78.50;149795.13;4937480;28;20249;-65
2023/07/18 00:34:41;;;;;;;4.57;1.10;;;;;;;14.74;78.15;149788.91;4919606;28;20875;-65
2023/07/18 00:37:07;;;;;;;3.53;1.20;;;;;;;14.69;77.53;149777.66;4932358;28;20637;-65
2023/07/18 00:39:34;;;;;;;3.27;1.00;;;;;;;14.71;78.30;149781.44;4945250;28;20238;-65
2023/07/18 00:42:01;;;;;;;4.20;1.20;;;;;;;14.65;78.92;149766.41;4947276;28;20994;-65
2023/07/18 00:44:29;;;;;;;2.33;1.03;;;;;;;14.57;80.39;149747.63;4945199;28;20349;-65
2023/07/18 00:46:56;;;;;;;2.77;1.03;;;;;;;14.57;79.08;149748.91;4928104;28;20255;-65
2023/07/18 00:49:23;;;;;;;2.30;0.90;;;;;;;14.57;77.29;149747.63;4931122;29;20247;-65
2023/07/18 00:51:50;;;;;;;2.43;1.00;;;;;;;14.58;78.47;149751.41;4930529;28;20240;-65
2023/07/18 00:54:17;;;;;;;5.60;1.27;;;;;;;14.49;79.03;149727.66;4930856;28;20243;-65
2023/07/18 00:56:44;;;;;;;3.00;1.10;;;;;;;14.47;79.80;149723.94;4947269;28;22602;-65
2023/07/18 00:59:13;;;;;;;4.40;1.10;;;;;;;14.44;80.12;149716.44;4950377;28;20802;-65
2023/07/18 01:01:41;;;;;;;5.67;1.30;;;;;;;14.35;81.63;149695.19;4945433;28;20242;-65
2023/07/18 01:04:08;;;;;;;3.77;1.00;;;;;;;14.39;80.94;149705.19;4949363;28;20274;-65
2023/07/18 01:06:36;;;;;;;3.90;0.97;;;;;;;14.44;79.60;149716.44;4926900;29;20299;-65
2023/07/18 01:09:03;;;;;;;3.23;1.00;;;;;;;14.49;78.25;149728.94;4922621;29;20241;-65
2023/07/18 01:11:30;;;;;;;2.43;1.13;;;;;;;14.51;78.42;149732.66;4927587;29;20293;-65
2023/07/18 01:13:56;;;;;;;2.30;1.20;;;;;;;14.46;79.06;149722.66;4947302;28;20236;-65
2023/07/18 01:16:23;;;;;;;5.10;1.00;;;;;;;14.53;78.73;149738.91;4926541;29;20249;-65
2023/07/18 01:18:52;;;;;;;4.23;1.57;;;;;;;14.59;77.88;149753.91;4946996;28;20247;-65
2023/07/18 01:21:21;;;;;;;5.23;1.07;;;;;;;14.56;78.68;149746.41;4925393;29;20812;-65
2023/07/18 01:23:47;;;;;;;5.53;1.20;;;;;;;14.55;77.95;149743.91;4928120;29;20230;-65
2023/07/18 01:26:15;;;;;;;7.07;1.20;;;;;;;14.55;79.69;149742.63;4922497;28;20232;-65
2023/07/18 01:28:42;;;;;;;5.73;1.30;;;;;;;14.46;79.85;149721.44;4945299;28;20710;-65
2023/07/18 01:31:09;;;;;;;8.17;1.10;;;;;;;14.39;79.18;149705.19;4948544;28;20239;-65
2023/07/18 01:33:35;;;;;;;1.53;0.77;;;;;;;14.34;82.25;149691.47;4946037;28;20238;-65
2023/07/18 01:36:02;;;;;;;2.40;0.83;;;;;;;14.25;81.86;149671.50;4948834;28;20234;-65
2023/07/18 01:38:30;;;;;;;2.70;0.83;;;;;;;14.23;82.50;149665.28;4945769;28;20303;-65
2023/07/18 01:40:57;;;;;;;2.67;1.00;;;;;;;14.18;81.93;149654.03;4949708;28;20254;-65
2023/07/18 01:43:25;;;;;;;1.73;0.90;;;;;;;14.20;81.14;149657.78;4945686;28;20233;-65
2023/07/18 01:45:51;;;;;;;4.00;0.90;;;;;;;14.17;81.68;149651.53;4929425;28;20242;-65
2023/07/18 01:48:19;;;;;;;6.63;0.93;;;;;;;14.19;81.80;149656.50;4946834;28;20237;-65
2023/07/18 01:50:45;;;;;;;7.03;1.13;;;;;;;14.17;81.56;149651.53;4917020;28;20245;-65
2023/07/18 01:53:12;;;;;;;4.03;1.00;;;;;;;14.21;81.20;149661.50;4921950;29;20223;-65
2023/07/18 01:55:41;;;;;;;2.70;1.10;;;;;;;14.21;81.42;149661.50;4928957;28;20238;-65
2023/07/18 01:58:08;;;;;;;3.73;1.10;;;;;;;14.23;82.55;149665.28;4941208;28;20673;-65
2023/07/18 02:00:36;;;;;;;3.40;1.00;;;;;;;14.15;82.88;149646.53;4918455;29;20320;-65
2023/07/18 02:03:03;;;;;;;2.87;1.10;;;;;;;14.13;82.42;149641.53;4950782;28;20243;-65
2023/07/18 02:05:31;;;;;;;5.03;1.10;;;;;;;14.11;84.81;149636.53;4945244;28;20227;-65
2023/07/18 02:08:02;;;;;;;3.20;1.17;;;;;;;14.08;84.07;149629.03;4941182;28;20769;-65
2023/07/18 02:10:29;;;;;;;7.37;1.13;;;;;;;14.00;85.13;149611.56;4923194;28;20235;-65
2023/07/18 02:13:22;;;;;;;4.27;1.30;;;;;;;14.01;85.08;149612.84;4947506;28;20311;-65
2023/07/18 02:15:49;;;;;;;5.87;1.20;;;;;;;13.98;85.23;149605.34;4921499;28;20330;-65
2023/07/18 02:18:15;;;;;;;5.23;1.20;;;;;;;13.96;84.42;149601.59;4947266;28;20232;-65
2023/07/18 02:20:42;;;;;;;5.63;2.03;;;;;;;13.99;83.53;149609.06;4927612;29;20226;-65
2023/07/18 02:23:08;;;;;;;3.43;1.07;;;;;;;14.08;83.04;149630.31;4946905;28;20651;-64
2023/07/18 02:25:38;;;;;;;3.37;1.20;;;;;;;14.07;84.09;149626.56;4942967;28;20627;-64
2023/07/18 02:28:05;;;;;;;2.40;0.83;;;;;;;14.04;83.18;149620.34;4929791;28;20229;-64
2023/07/18 02:30:33;;;;;;;4.23;1.40;;;;;;;14.01;82.18;149614.06;4920296;29;20236;-64
2023/07/18 02:33:04;;;;;;;2.37;0.83;;;;;;;14.00;82.81;149611.56;4923810;28;20242;-64
2023/07/18 02:35:31;;;;;;;3.10;0.80;;;;;;;14.03;84.45;149617.84;4945131;28;20222;-64
2023/07/18 02:38:02;;;;;;;4.13;0.97;;;;;;;13.99;86.00;149609.06;4947117;28;20245;-64
2023/07/18 02:40:29;;;;;;;3.53;1.10;;;;;;;13.93;86.98;149592.88;4935565;28;20229;-64
2023/07/18 02:42:56;;;;;;;5.87;1.43;;;;;;;13.90;86.96;149585.38;4949829;28;20240;-64
2023/07/18 02:45:23;;;;;;;4.83;1.00;;;;;;;14.03;84.29;149619.06;4946631;28;20240;-64
2023/07/18 02:47:51;;;;;;;2.90;1.10;;;;;;;14.09;84.85;149631.53;4944275;28;20226;-64
2023/07/18 02:50:17;;;;;;;2.30;0.83;;;;;;;13.99;84.02;149609.06;4923574;28;20232;-64
2023/07/18 02:52:44;;;;;;;4.10;1.07;;;;;;;13.97;85.31;149602.84;4914974;28;21401;-64
2023/07/18 02:55:11;;;;;;;4.87;1.00;;;;;;;13.95;85.36;149597.88;4938749;28;20258;-64
2023/07/18 02:57:37;;;;;;;4.40;1.10;;;;;;;13.95;84.48;149597.88;4919031;29;20234;-64
2023/07/18 03:00:06;;;;;;;3.63;1.17;;;;;;;13.96;84.29;149601.59;4927770;28;20443;-64
2023/07/18 03:02:34;;;;;;;3.73;1.10;;;;;;;14.00;85.83;149611.56;4941822;28;20232;-64
2023/07/18 03:05:02;;;;;;;7.73;1.30;;;;;;;14.02;84.16;149616.56;4922304;28;20239;-64
2023/07/18 03:07:29;;;;;;;3.33;1.13;;;;;;;14.00;84.21;149611.56;4943720;28;20568;-64
2023/07/18 03:09:55;;;;;;;5.70;1.10;;;;;;;13.95;84.11;149599.09;4924398;28;20648;-64
2023/07/18 03:12:22;;;;;;;4.00;1.90;;;;;;;14.00;85.45;149611.56;4946690;28;20715;-64
2023/07/18 03:14:48;;;;;;;3.40;1.30;;;;;;;13.99;85.63;149607.84;4943802;28;20256;-64
2023/07/18 03:17:17;;;;;;;1.63;0.90;;;;;;;14.00;84.11;149611.56;4947448;28;20241;-64
2023/07/18 03:19:44;;;;;;;4.03;1.00;;;;;;;13.95;83.99;149599.09;4943639;28;20809;-64
2023/07/18 03:22:13;;;;;;;2.70;1.00;;;;;;;13.92;84.53;149591.59;4946962;28;20708;-64
2023/07/18 03:24:40;;;;;;;6.93;1.40;;;;;;;14.00;85.78;149611.56;4941519;28;20309;-64
2023/07/18 03:27:07;;;;;;;2.80;0.90;;;;;;;13.95;86.26;149597.88;4932012;28;20305;-64
2023/07/18 03:29:34;;;;;;;3.87;1.00;;;;;;;13.92;84.16;149591.59;4943558;28;20325;-64
2023/07/18 03:32:01;;;;;;;3.07;0.80;;;;;;;13.93;84.23;149594.09;5120822;23;20711;-65
2023/07/18 03:34:28;;;;;;;4.40;0.90;;;;;;;13.93;84.59;149594.09;4924095;29;20263;-65
2023/07/18 03:36:55;;;;;;;6.90;1.37;;;;;;;13.95;83.53;149599.09;4902267;29;20561;-65
2023/07/18 03:39:23;;;;;;;2.83;0.90;;;;;;;14.04;85.41;149620.34;4904402;29;20335;-65
2023/07/18 03:41:50;;;;;;;3.40;1.10;;;;;;;13.98;86.27;149606.56;4904633;29;20246;-65
2023/07/18 03:44:16;;;;;;;2.30;1.07;;;;;;;14.01;85.00;149614.06;4925963;29;20227;-65
2023/07/18 03:46:43;;;;;;;3.97;0.90;;;;;;;14.03;84.55;149617.84;4923829;29;20240;-65
2023/07/18 03:49:09;;;;;;;5.73;1.40;;;;;;;14.08;85.22;149629.03;4925236;29;20590;-65
2023/07/18 03:51:36;;;;;;;3.07;1.20;;;;;;;14.07;83.60;149627.81;4921216;29;20247;-65
2023/07/18 03:54:03;;;;;;;4.37;1.20;;;;;;;14.11;85.56;149636.53;4926256;29;20243;-64
2023/07/18 03:56:31;;;;;;;3.37;1.00;;;;;;;14.15;83.56;149647.81;4922099;29;20233;-64
2023/07/18 03:58:58;;;;;;;4.37;1.07;;;;;;;14.09;83.46;149631.53;4922210;29;20317;-64
2023/07/18 04:01:24;;;;;;;4.47;0.90;;;;;;;14.09;83.47;149632.81;4919481;29;20226;-64
2023/07/18 04:03:51;;;;;;;6.20;1.00;;;;;;;14.11;82.67;149636.53;4921696;29;20235;-64
2023/07/18 04:06:18;;;;;;;2.20;0.87;;;;;;;14.09;82.99;149632.81;4926080;29;20228;-64
2023/07/18 04:08:44;;;;;;;2.70;0.90;;;;;;;14.07;83.12;149626.56;4920538;29;23799;-64
2023/07/18 04:11:11;;;;;;;3.33;0.90;;;;;;;14.08;83.33;149629.03;4927267;29;20234;-64
2023/07/18 04:13:38;;;;;;;4.07;1.00;;;;;;;14.09;84.18;149631.53;4927331;29;20241;-64
2023/07/18 04:16:07;;;;;;;2.27;1.00;;;;;;;14.03;83.34;149617.84;4922428;29;20238;-64
2023/07/18 04:18:33;;;;;;;3.93;1.10;;;;;;;13.98;85.34;149606.56;4926330;29;20237;-64
2023/07/18 04:21:01;;;;;;;2.30;1.13;;;;;;;13.94;85.91;149595.38;4924626;29;20302;-64
2023/07/18 04:23:28;;;;;;;4.27;1.20;;;;;;;13.92;86.59;149590.38;4930613;29;20275;-65
2023/07/18 04:25:56;;;;;;;5.57;1.27;;;;;;;13.91;86.86;149587.88;4929127;29;20238;-65
2023/07/18 04:28:23;;;;;;;5.63;1.20;;;;;;;13.99;86.79;149609.06;4925816;29;20241;-65
2023/07/18 04:30:51;;;;;;;3.73;1.20;;;;;;;13.98;87.53;149606.56;4924983;28;20773;-65
2023/07/18 04:33:17;;;;;;;2.57;1.00;;;;;;;13.95;86.79;149597.88;4928512;29;20237;-65
2023/07/18 04:35:45;;;;;;;5.60;1.23;;;;;;;13.96;86.80;149600.38;4923220;29;20288;-65
2023/07/18 04:38:12;;;;;;;2.60;1.10;;;;;;;13.97;87.42;149602.84;4928105;29;20238;-65
2023/07/18 04:40:39;;;;;;;3.23;1.00;;;;;;;14.05;86.39;149621.56;4929022;29;20234;-65
2023/07/18 04:43:05;;;;;;;2.37;1.27;;;;;;;14.11;84.42;149636.53;4913564;29;20244;-65
2023/07/18 04:45:32;;;;;;;2.07;1.00;;;;;;;14.19;83.37;149655.28;4911761;29;20224;-65
2023/07/18 04:48:04;;;;;;;4.83;1.27;;;;;;;14.21;84.47;149660.28;4909037;29;20240;-64
2023/07/18 04:50:30;;;;;;;6.40;1.13;;;;;;;14.27;84.79;149675.25;4909803;29;20244;-64
2023/07/18 04:53:02;;;;;;;3.13;1.23;;;;;;;14.39;86.85;149705.19;4911703;29;20235;-64
2023/07/18 04:55:29;;;;;;;5.43;1.43;;;;;;;14.41;87.60;149708.94;4907517;29;20425;-64
2023/07/18 04:57:59;;;;;;;5.90;1.60;;;;;;;14.41;86.70;149708.94;4912277;29;20232;-64
2023/07/18 05:00:28;;;;;;;13.03;2.60;;;;;;;14.42;86.21;149711.44;4906894;29;20234;-64
2023/07/18 05:02:54;;;;;;;18.40;2.70;;;;;;;14.42;87.88;149711.44;4905454;29;20722;-64
2023/07/18 05:05:23;;;;;;;11.47;1.70;;;;;;;14.44;87.45;149716.44;4907540;29;20244;-64
2023/07/18 05:07:50;;;;;;;6.67;1.77;;;;;;;14.41;87.23;149710.19;4906951;29;20231;-64
2023/07/18 05:10:16;;;;;;;11.17;2.10;;;;;;;14.53;86.55;149737.66;4907515;29;20235;-64
2023/07/18 05:12:43;;;;;;;7.03;1.70;;;;;;;14.52;86.80;149735.16;4904578;29;20236;-64
2023/07/18 05:15:10;;;;;;;5.77;1.40;;;;;;;14.54;87.01;149740.16;4907698;29;20709;-65
2023/07/18 05:17:37;;;;;;;5.33;1.40;;;;;;;14.60;87.87;149756.41;4904976;29;20287;-64
2023/07/18 05:20:05;;;;;;;7.03;1.27;;;;;;;14.61;90.25;149757.63;4908230;29;20247;-64
2023/07/18 05:22:33;;;;;;;3.83;1.10;;;;;;;14.67;87.33;149771.38;4905180;29;20302;-64
2023/07/18 05:25:00;;;;;;;2.60;0.90;;;;;;;14.79;84.78;149801.41;4908944;29;20235;-64
2023/07/18 05:27:27;;;;;;;4.70;1.40;;;;;;;14.84;85.79;149813.84;4905277;29;20224;-64
2023/07/18 05:29:55;;;;;;;7.80;1.20;;;;;;;14.91;87.28;149831.34;4907672;29;20314;-64
2023/07/18 05:32:22;;;;;;;4.30;1.10;;;;;;;14.95;87.40;149838.81;4907688;29;20232;-65
2023/07/18 05:34:49;;;;;;;5.77;1.30;;;;;;;14.99;87.15;149850.09;4905598;29;20236;-64
2023/07/18 05:37:16;;;;;;;4.03;1.07;;;;;;;15.05;87.25;149863.81;4909511;29;20235;-64
2023/07/18 05:39:44;;;;;;;2.73;1.10;;;;;;;15.11;86.73;149878.81;4903879;29;20231;-64
2023/07/18 05:42:11;;;;;;;3.87;1.40;;;;;;;15.17;86.73;149893.78;4904178;29;20243;-64
2023/07/18 05:44:37;;;;;;;2.10;1.00;;;;;;;15.23;85.60;149906.28;4901658;29;20225;-65
2023/07/18 05:47:04;;;;;;;2.33;0.93;;;;;;;15.29;84.35;149922.53;4905373;29;20536;-64
2023/07/18 05:49:31;;;;;;;5.53;1.40;;;;;;;15.41;84.04;149950.00;4905121;29;20277;-64
2023/07/18 05:51:58;;;;;;;6.27;1.20;;;;;;;15.44;83.58;149958.75;4908475;29;20244;-64
2023/07/18 05:54:25;;;;;;;2.67;1.20;;;;;;;15.55;82.63;149983.75;4907243;29;20799;-64
2023/07/18 05:56:53;;;;;;;3.53;1.30;;;;;;;15.74;81.72;150029.97;4926583;29;20290;-64
2023/07/18 05:59:19;;;;;;;4.90;1.37;;;;;;;15.95;81.70;150081.22;4926211;29;20247;-64
2023/07/18 06:01:46;;;;;;;3.97;1.40;;;;;;;16.17;79.50;150135.00;4923687;29;20628;-64
2023/07/18 06:04:15;;;;;;;6.70;1.00;;;;;;;16.38;78.79;150185.00;4928862;29;20719;-64
2023/07/18 06:06:43;;;;;;;9.60;1.40;;;;;;;16.58;78.49;150233.72;4925640;29;20299;-64
2023/07/18 06:09:09;;;;;;;3.40;1.10;;;;;;;16.76;78.62;150276.22;4926207;29;20270;-64
2023/07/18 06:11:36;;;;;;;4.50;1.20;;;;;;;16.94;77.85;150321.25;4923197;29;20225;-64
2023/07/18 06:14:05;;;;;;;4.03;1.20;;;;;;;17.09;76.12;150357.53;4925943;29;20232;-64
2023/07/18 06:16:32;;;;;;;3.70;1.70;;;;;;;17.24;73.08;150393.78;4922998;29;20229;-64
2023/07/18 06:18:59;;;;;;;6.53;1.50;;;;;;;17.47;74.79;150448.81;4928087;29;20240;-64
2023/07/18 06:21:26;;;;;;;4.67;1.60;;;;;;;17.56;74.63;150470.06;4923437;29;20233;-64
2023/07/18 06:23:53;;;;;;;7.73;1.83;;;;;;;17.69;72.29;150502.59;4926640;29;20244;-65
2023/07/18 06:26:19;;;;;;;11.13;2.00;;;;;;;17.89;73.62;150548.91;4929245;29;20249;-65
2023/07/18 06:28:46;;;;;;;4.63;1.30;;;;;;;18.00;71.03;150576.50;4928637;29;20237;-65
2023/07/18 06:31:14;;;;;;;6.17;2.00;;;;;;;18.12;71.60;150606.47;4929217;29;20312;-65
2023/07/18 06:33:41;;;;;;;3.87;1.93;;;;;;;18.25;69.61;150636.50;4921224;29;20324;-65
2023/07/18 06:36:09;;;;;;;5.67;2.00;;;;;;;18.22;70.00;150629.00;4931165;29;20316;-65
2023/07/18 06:38:35;;;;;;;6.60;1.67;;;;;;;18.41;72.38;150675.34;4923041;29;20249;-65
2023/07/18 06:41:02;;;;;;;8.07;2.40;;;;;;;18.27;70.67;150641.50;4928440;29;20249;-65
2023/07/18 06:43:28;;;;;;;7.57;2.80;;;;;;;18.31;70.47;150651.53;4926930;28;20305;-65
2023/07/18 06:45:55;;;;;;;4.40;2.47;;;;;;;18.52;71.73;150702.88;4928130;29;20793;-65
2023/07/18 06:48:23;;;;;;;5.83;2.40;;;;;;;18.63;71.11;150727.84;4925579;29;20646;-65
2023/07/18 06:50:51;;;;;;;7.67;2.63;;;;;;;18.78;69.80;150764.19;4923464;29;20249;-65
2023/07/18 06:53:19;;;;;;;5.50;2.47;;;;;;;18.84;70.34;150780.44;4922208;29;20605;-65
2023/07/18 06:55:46;;;;;;;4.67;2.17;;;;;;;18.99;69.44;150815.53;4921195;29;20243;-65
2023/07/18 06:58:13;;;;;;;4.30;2.53;;;;;;;19.16;70.19;150858.13;4922984;29;20226;-65
2023/07/18 07:00:40;;;;;;;13.73;2.70;;;;;;;19.29;68.44;150888.16;4920838;29;20243;-64
2023/07/18 07:03:08;;;;;;;6.90;2.20;;;;;;;19.44;67.87;150924.47;4922863;29;20222;-65
2023/07/18 07:05:38;;;;;;;9.20;3.27;;;;;;;19.32;65.38;150895.69;4921625;29;20253;-64
2023/07/18 07:08:05;;;;;;;6.60;2.07;;;;;;;19.35;64.72;150903.19;4922340;29;20233;-64
2023/07/18 07:10:33;;;;;;;8.07;2.50;;;;;;;19.46;64.91;150929.47;4921366;29;20241;-65
2023/07/18 07:15:43;;;;;;;4.80;2.63;;;;;;;19.67;63.14;150980.78;5089692;23;20269;-65
2023/07/18 07:18:10;;;;;;;8.10;2.37;;;;;;;19.63;64.15;150970.78;4962326;28;20233;-65
2023/07/18 07:20:38;;;;;;;6.97;2.27;;;;;;;19.74;64.59;150998.31;4962538;28;20226;-65
2023/07/18 07:23:05;;;;;;;5.37;2.17;;;;;;;19.85;63.99;151023.38;4963591;28;20235;-65
2023/07/18 07:25:37;;;;;;;6.87;2.23;;;;;;;19.93;63.65;151042.25;4944560;28;20294;-65
2023/07/18 07:28:04;;;;;;;4.63;1.97;;;;;;;20.05;63.74;151073.53;4948016;28;20235;-65
2023/07/18 07:30:31;;;;;;;6.27;2.10;;;;;;;20.22;61.91;151113.63;4962054;28;20234;-65
2023/07/18 07:33:05;;;;;;;5.13;1.97;;;;;;;20.26;61.51;151122.38;4979393;28;20233;-65
2023/07/18 07:35:31;;;;;;;4.50;1.77;;;;;;;20.33;61.98;151139.91;4981692;28;20233;-65
2023/07/18 07:38:03;;;;;;;5.63;1.90;;;;;;;20.37;61.39;151148.72;4984953;28;20329;-65
2023/07/18 07:40:30;;;;;;;4.00;1.80;;;;;;;20.12;60.74;151089.84;4982396;28;20238;-65
2023/07/18 07:43:02;;;;;;;3.63;2.17;;;;;;;20.33;59.62;151141.19;4984726;28;20294;-65
2023/07/18 07:45:29;;;;;;;6.00;1.83;;;;;;;20.43;59.26;151163.75;4982235;28;20243;-65
2023/07/18 07:48:21;;;;;;;6.83;2.27;;;;;;;20.56;58.12;151196.31;4988605;28;20322;-65
2023/07/18 07:50:48;;;;;;;5.10;1.47;;;;;;;20.54;57.70;151190.03;4985875;28;20244;-65
2023/07/18 07:53:16;;;;;;;5.33;1.80;;;;;;;20.71;58.23;151232.66;4987853;28;20232;-65
2023/07/18 07:55:42;;;;;;;5.20;1.73;;;;;;;20.75;57.16;151241.41;4986028;28;20233;-65
2023/07/18 07:58:09;;;;;;;7.17;1.60;;;;;;;20.45;58.08;151168.75;4988617;28;20631;-65
2023/07/18 08:00:36;;;;;;;4.67;1.60;;;;;;;20.54;58.68;151190.03;4981175;28;20238;-65
2023/07/18 08:03:02;;;;;;;4.40;1.70;;;;;;;20.79;57.59;151252.75;4984493;28;20242;-65
2023/07/18 08:05:29;;;;;;;3.90;1.50;;;;;;;20.98;57.98;151297.88;4982867;28;20329;-65
2023/07/18 08:08:22;;;;;;;6.50;1.70;;;;;;;20.93;56.76;151285.34;4986013;28;20666;-65
2023/07/18 08:10:49;;;;;;;4.03;1.80;;;;;;;21.07;59.04;151320.44;4983118;28;20241;-65
2023/07/18 08:13:17;;;;;;;4.43;1.40;;;;;;;21.20;58.02;151351.75;4986224;28;20607;-65
2023/07/18 08:15:44;;;;;;;6.03;1.93;;;;;;;21.35;58.01;151388.06;4981860;28;20321;-65
2023/07/18 08:18:10;;;;;;;5.40;1.63;;;;;;;21.57;58.42;151439.50;4987959;28;20243;-66
2023/07/18 08:20:37;;;;;;;3.27;1.50;;;;;;;21.65;58.16;151459.63;4984677;28;20748;-64
2023/07/18 08:23:04;;;;;;;6.20;1.30;;;;;;;21.62;58.47;151453.31;4987994;28;20249;-64
2023/07/18 08:25:32;;;;;;;7.87;1.67;;;;;;;21.75;59.37;151483.41;4983528;28;20319;-65
2023/07/18 08:28:02;;;;;;;5.87;1.60;;;;;;;21.87;58.14;151512.22;4985388;28;20327;-64
2023/07/18 08:30:29;;;;;;;5.37;1.37;;;;;;;21.93;56.93;151527.28;4982948;28;20281;-65
2023/07/18 08:33:00;;;;;;;7.37;1.83;;;;;;;21.92;55.61;151526.06;4987899;28;20721;-65
2023/07/18 08:35:26;;;;;;;3.83;1.30;;;;;;;21.99;55.71;151541.09;4984397;28;20726;-65
2023/07/18 08:37:54;;;;;;;2.10;1.40;;;;;;;22.12;56.04;151573.72;4987393;28;20325;-65
2023/07/18 08:40:20;;;;;;;4.93;1.37;;;;;;;22.12;55.69;151574.94;4986191;28;20225;-65
2023/07/18 08:42:48;;;;;;;3.30;1.30;;;;;;;22.34;55.97;151626.34;4982658;28;20241;-65
2023/07/18 08:45:16;;;;;;;6.90;1.57;;;;;;;22.47;55.11;151657.78;4985812;28;20231;-65
2023/07/18 08:47:43;;;;;;;8.87;1.67;;;;;;;22.55;53.62;151677.84;4982468;28;20212;-65
2023/07/18 08:50:11;;;;;;;4.17;1.40;;;;;;;22.48;55.40;151661.50;4986826;28;20223;-63
2023/07/18 08:52:38;;;;;;;7.67;1.97;;;;;;;22.52;53.54;151670.31;4984382;28;20227;-65
2023/07/18 08:55:05;;;;;;;5.20;1.47;;;;;;;22.66;53.15;151705.44;4987119;28;20416;-65
2023/07/18 08:57:33;;;;;;;5.60;1.63;;;;;;;22.65;52.17;151701.66;4982308;28;20289;-65
2023/07/18 09:00:04;;;;;;;9.00;2.30;;;;;;;22.80;54.51;151738.00;4986416;28;20316;-64
2023/07/18 09:02:30;;;;;;;3.37;1.37;;;;;;;22.84;52.90;151749.34;4978999;28;20234;-65
2023/07/18 09:04:57;;;;;;;4.47;1.30;;;;;;;22.82;53.03;151743.03;4968619;28;20256;-58
2023/07/18 09:07:27;;;;;;;3.53;1.60;;;;;;;22.99;52.55;151784.47;4986666;28;20274;-64
2023/07/18 09:09:53;;;;;;;4.10;1.53;;;;;;;22.99;52.67;151785.69;4964792;28;20229;-64
2023/07/18 09:12:20;;;;;;;3.57;1.30;;;;;;;23.12;51.52;151817.09;4967635;28;20239;-64
2023/07/18 09:14:47;;;;;;;7.57;1.83;;;;;;;23.09;51.50;151809.56;4971395;28;20236;-64
2023/07/18 09:17:15;;;;;;;6.30;1.70;;;;;;;23.29;51.12;151858.53;4981973;28;20247;-64
2023/07/18 09:19:43;;;;;;;5.70;1.37;;;;;;;23.54;51.58;151917.50;4983993;28;20239;-64
2023/07/18 09:22:11;;;;;;;7.97;1.60;;;;;;;24.08;49.77;152049.31;4987125;28;20558;-64
2023/07/18 09:24:38;;;;;;;3.17;1.30;;;;;;;24.61;49.71;152178.63;4983745;28;20229;-64
2023/07/18 09:27:06;;;;;;;8.67;1.50;;;;;;;25.14;47.64;152306.78;4986665;28;20234;-64
2023/07/18 09:29:33;;;;;;;6.43;1.80;;;;;;;25.46;46.35;152383.44;4982666;28;20228;-64
2023/07/18 09:32:03;;;;;;;2.43;1.50;;;;;;;25.46;47.36;152383.44;4985267;28;20247;-64
2023/07/18 09:34:31;;;;;;;6.83;1.60;;;;;;;25.29;45.49;152341.97;4965995;28;20242;-64
2023/07/18 09:36:59;;;;;;;5.77;1.67;;;;;;;25.11;46.66;152297.97;4968711;28;20234;-64
2023/07/18 09:39:27;;;;;;;7.27;1.77;;;;;;;25.14;46.06;152306.78;4982487;28;20245;-64
2023/07/18 09:41:55;;;;;;;6.23;1.67;;;;;;;24.95;46.08;152260.28;4985186;28;20246;-64
2023/07/18 09:44:23;;;;;;;3.73;1.30;;;;;;;24.76;46.71;152215.13;4969123;28;20328;-65
2023/07/18 09:46:50;;;;;;;8.27;1.77;;;;;;;24.72;47.69;152203.75;4982697;28;20225;-65
2023/07/18 09:49:18;;;;;;;4.13;1.67;;;;;;;24.67;46.39;152192.47;4986192;28;20296;-64
2023/07/18 09:51:51;;;;;;;6.87;1.83;;;;;;;24.10;52.63;152053.13;4983788;28;20242;-64
2023/07/18 09:54:21;;;;;;;3.67;1.37;;;;;;;23.96;54.41;152020.41;4985989;28;20334;-64
2023/07/18 09:56:49;;;;;;;6.70;1.53;;;;;;;23.76;56.00;151971.50;4982753;28;20325;-64
2023/07/18 09:59:17;;;;;;;4.10;1.40;;;;;;;23.69;60.33;151955.16;4985916;28;20247;-64
2023/07/18 10:01:45;;;;;;;5.93;1.70;;;;;;;23.49;57.03;151906.22;4982156;28;20247;-64
2023/07/18 10:04:12;;;;;;;8.23;1.77;;;;;;;23.51;50.94;151909.97;4985579;28;20236;-64
2023/07/18 10:06:38;;;;;;;5.47;1.50;;;;;;;23.47;51.05;151901.19;4982497;28;20593;-65
2023/07/18 10:09:07;;;;;;;5.43;1.60;;;;;;;23.01;52.20;151789.47;4985010;28;20971;-66
2023/07/18 10:12:06;;;;;;;8.03;1.50;;;;;;;23.22;52.01;151839.69;4981641;28;20230;-66
2023/07/18 10:14:49;;;;;;;6.80;2.00;;;;;;;23.43;51.11;151892.38;4982357;28;20249;-66
2023/07/18 10:17:25;;;;;;;5.17;1.70;;;;;;;23.80;50.26;151981.53;4983813;28;20225;-66
2023/07/18 10:19:52;;;;;;;6.10;1.83;;;;;;;24.71;48.07;152201.25;4982436;28;20232;-64
2023/07/18 10:22:25;;;;;;;7.10;1.50;;;;;;;24.28;47.83;152097.03;4985756;28;20236;-64
2023/07/18 10:24:53;;;;;;;7.43;1.73;;;;;;;24.83;46.55;152231.44;4978947;28;20583;-64
2023/07/18 10:27:24;;;;;;;3.47;1.40;;;;;;;25.35;47.66;152358.28;4985556;28;20228;-64
2023/07/18 10:30:04;;;;;;;6.63;1.70;;;;;;;25.01;47.41;152274.13;4983005;28;20683;-64
2023/07/18 10:32:32;;;;;;;4.13;1.60;;;;;;;24.88;48.05;152244.00;4981357;28;20233;-64
2023/07/18 10:34:59;;;;;;;3.17;1.63;;;;;;;25.19;46.33;152318.06;4985208;28;20311;-64
2023/07/18 10:37:27;;;;;;;2.50;1.50;;;;;;;25.50;44.72;152393.50;4965109;28;20220;-64
2023/07/18 10:39:56;;;;;;;5.27;1.63;;;;;;;25.46;43.81;152384.69;4985811;28;20240;-64
2023/07/18 10:42:26;;;;;;;7.20;1.83;;;;;;;25.31;45.69;152347.00;4985606;28;20236;-64
2023/07/18 10:44:58;;;;;;;5.57;1.77;;;;;;;24.90;46.78;152249.00;4974950;28;20236;-64
2023/07/18 10:47:25;;;;;;;4.47;1.57;;;;;;;24.83;47.33;152231.44;4983942;28;20630;-64
2023/07/18 10:49:52;;;;;;;4.77;1.60;;;;;;;24.37;48.74;152118.41;4982894;28;20710;-64
2023/07/18 10:52:20;;;;;;;4.80;1.70;;;;;;;24.11;49.04;152055.63;4950590;28;20295;-64
2023/07/18 10:54:53;;;;;;;4.73;1.70;;;;;;;23.99;50.38;152028.00;4972210;28;20296;-64
2023/07/18 10:57:25;;;;;;;3.47;1.70;;;;;;;23.96;52.52;152019.13;4984508;28;20724;-64
2023/07/18 10:59:53;;;;;;;4.97;1.80;;;;;;;23.89;53.09;152004.06;4982642;28;20711;-64
2023/07/18 11:02:20;;;;;;;6.03;1.80;;;;;;;23.70;54.07;151957.66;4965509;28;20388;-64
2023/07/18 11:04:47;;;;;;;3.37;1.50;;;;;;;23.28;54.41;151854.78;4980341;28;20241;-64
2023/07/18 11:07:14;;;;;;;4.53;1.87;;;;;;;23.18;55.53;151830.88;4985069;28;20718;-64
2023/07/18 11:09:41;;;;;;;4.73;1.60;;;;;;;23.07;56.88;151803.25;4981946;28;20247;-64
2023/07/18 11:12:15;;;;;;;5.63;1.60;;;;;;;23.00;57.20;151786.97;4985230;28;20333;-64
2023/07/18 11:14:43;;;;;;;5.50;2.00;;;;;;;22.78;66.49;151734.28;4981620;28;20238;-64
2023/07/18 11:17:12;;;;;;;8.07;2.10;;;;;;;22.88;67.48;151758.09;4984026;28;20232;-63
2023/07/18 11:19:39;;;;;;;7.60;1.53;;;;;;;23.19;67.71;151832.16;4982742;28;20688;-65
2023/07/18 11:22:07;;;;;;;4.90;2.13;;;;;;;23.49;67.87;151906.22;4970694;28;20237;-66
2023/07/18 11:24:34;;;;;;;5.53;1.90;;;;;;;23.81;66.75;151982.75;4985334;28;20733;-64
2023/07/18 11:27:15;;;;;;;3.07;1.80;;;;;;;24.15;65.25;152066.91;4988945;28;20317;-66
2023/07/18 11:29:50;;;;;;;4.03;1.60;;;;;;;24.46;64.80;152142.22;4986063;28;20317;-64